If you wish to contribute or participate in the discussions about articles you are invited to join SKYbrary as a registered user

 Actions

Nîmes-Arles-Camargue Airport

From SKYbrary Wiki

LFTW
Airport
ICAO: LFTW – IATA: FNI
Summary
Name Nîmes-Arles-Camargue Airport
Region Europe
Territory France FR.gif
Location , Languedoc-Roussillon
Serving Nimes
Elevation 94.183 m
309 ft
309 ft94.183 m
Type medium airport
Coordinates 43° 45' 26.80" N, 4° 24' 58.85" E
Runways
Designator Length Width Surface ROPS
18/36 2440 m8,005.249 ft
45 m147.638 ft
CON yes/yes


METAR
Observation LFTW 230430Z AUTO 07010KT 9999 ///CB 17/12 Q1008 TEMPO VRB15G35KT 0600 +TSRA FG
Station Nimes / Garons
Date/Time 23 October 2019 04:30:00
Wind direction 70°
Wind speed 10 kts
Lowest cloud amount n/a
Temperature 17°C
Dew point 12°C
Humidity 72%
QNH 1008 hPa
Weather condition n/a